Time;durP1;ratioP1;P1;durP2;ratioP2;P2;SDS_P1;SDS_P2;PMS_P1;PMS_P2;Temp;Humidity;BMP_temperature;BMP_pressure;BME280_temperature;BME280_humidity;BME280_pressure;Samples;Min_cycle;Max_cycle;Signal;HPM_P1;HPM_P2
2022/10/28 00:01:09;;;;;;;1999.90;999.90;;;;;;;10.97;100.00;99189.19;4980461;28;20523;-79
2022/10/28 00:03:44;;;;;;;1999.90;999.90;;;;;;;11.03;100.00;99193.59;4986904;28;20030;-78
2022/10/28 00:06:13;;;;;;;1999.90;999.90;;;;;;;11.05;100.00;99192.25;4979151;28;20400;-81
2022/10/28 00:08:39;;;;;;;1999.90;999.90;;;;;;;11.11;100.00;99187.63;4984911;28;20015;-79
2022/10/28 00:11:16;;;;;;;1999.90;999.90;;;;;;;11.19;100.00;99198.03;4986873;28;20090;-78
2022/10/28 00:13:42;;;;;;;1999.90;999.90;;;;;;;11.21;100.00;99188.47;4980087;28;20622;-78
2022/10/28 00:16:19;;;;;;;1999.90;999.90;;;;;;;11.27;100.00;99189.31;4976262;28;20034;-79
2022/10/28 00:18:45;;;;;;;1999.90;999.90;;;;;;;11.30;100.00;99186.06;4977861;28;20028;-79
2022/10/28 00:21:14;;;;;;;1999.90;999.90;;;;;;;11.29;100.00;99184.41;4978029;28;20381;-79
2022/10/28 00:23:40;;;;;;;1999.90;999.90;;;;;;;11.32;100.00;99186.59;4979147;28;20031;-77
2022/10/28 00:26:17;;;;;;;1999.90;999.90;;;;;;;11.34;100.00;99191.81;4979526;28;20027;-79
2022/10/28 00:28:45;;;;;;;1999.90;999.90;;;;;;;11.35;100.00;99186.06;4979320;28;20037;-80
2022/10/28 00:31:11;;;;;;;1999.90;999.90;;;;;;;11.35;100.00;99186.06;4979055;28;20030;-79
2022/10/28 00:33:37;;;;;;;1999.90;999.90;;;;;;;11.22;100.00;99184.66;4979277;28;20062;-80
2022/10/28 00:36:27;;;;;;;1999.90;999.90;;;;;;;11.28;100.00;99185.47;4978467;28;20093;-79
2022/10/28 00:38:54;;;;;;;1999.90;999.90;;;;;;;11.27;100.00;99190.16;4977391;28;20034;-78
2022/10/28 00:41:23;;;;;;;1999.90;999.90;;;;;;;11.25;100.00;99180.53;4975447;28;20023;-78
2022/10/28 00:43:51;;;;;;;1999.90;999.90;;;;;;;11.27;100.00;99181.13;4977659;28;20027;-78
2022/10/28 00:46:33;;;;;;;1999.90;999.90;;;;;;;11.20;100.00;99184.09;4980064;28;20122;-78
2022/10/28 00:49:04;;;;;;;1999.90;999.90;;;;;;;11.16;100.00;99176.69;4981970;28;20045;-81
2022/10/28 00:51:32;;;;;;;1999.90;999.90;;;;;;;11.15;100.00;99172.31;4980873;28;20027;-80
2022/10/28 00:53:58;;;;;;;1999.90;999.90;;;;;;;11.14;100.00;99176.97;4980457;28;20035;-80
2022/10/28 00:56:27;;;;;;;1999.90;999.90;;;;;;;11.18;100.00;99180.00;4979678;28;20412;-80
2022/10/28 00:58:58;;;;;;;1999.90;999.90;;;;;;;11.11;100.00;99173.94;4982318;28;20035;-80
2022/10/28 01:01:23;;;;;;;1999.90;999.90;;;;;;;11.08;100.00;99171.72;4982958;28;20127;-79
2022/10/28 01:03:50;;;;;;;1999.90;999.90;;;;;;;11.14;100.00;99181.63;4979699;28;20027;-79
2022/10/28 01:06:15;;;;;;;1999.90;999.90;;;;;;;11.21;100.00;99174.78;4976050;28;20030;-77
2022/10/28 01:08:41;;;;;;;1999.90;999.90;;;;;;;11.26;100.00;99172.06;4972905;28;20027;-77
2022/10/28 01:11:28;;;;;;;1999.90;999.90;;;;;;;11.33;100.00;99170.97;4973658;28;20027;-79
2022/10/28 01:14:11;;;;;;;1999.90;999.90;;;;;;;11.35;100.00;99172.34;4973536;28;20066;-77
2022/10/28 01:16:55;;;;;;;1999.90;999.90;;;;;;;11.34;100.00;99172.63;4973772;28;20031;-77
2022/10/28 01:19:29;;;;;;;1999.90;999.90;;;;;;;11.39;100.00;99165.25;4971450;28;20023;-77
2022/10/28 01:22:23;;;;;;;1999.90;999.90;;;;;;;11.31;100.00;99168.50;4972278;28;20033;-75
2022/10/28 01:25:12;;;;;;;1999.90;999.90;;;;;;;11.26;100.00;99161.09;4971113;28;20050;-78
2022/10/28 01:28:05;;;;;;;1999.90;999.90;;;;;;;11.24;100.00;99168.75;4975500;28;20031;-81
2022/10/28 01:30:53;;;;;;;1999.90;999.90;;;;;;;11.26;100.00;99173.97;4982816;28;20035;-80
2022/10/28 01:33:31;;;;;;;1999.90;999.90;;;;;;;11.24;100.00;99171.50;4963385;28;20050;-80
2022/10/28 01:36:26;;;;;;;1999.90;999.90;;;;;;;11.28;100.00;99174.53;4953359;28;20483;-78
2022/10/28 01:39:14;;;;;;;1999.90;999.90;;;;;;;11.30;100.00;99172.34;4953507;28;20039;-77
2022/10/28 01:41:52;;;;;;;1999.90;999.90;;;;;;;11.27;100.00;99170.16;4951692;28;20086;-78
2022/10/28 01:44:26;;;;;;;1999.90;999.90;;;;;;;11.27;100.00;99161.94;4952575;28;20070;-77
2022/10/28 01:46:52;;;;;;;1999.90;999.90;;;;;;;11.27;100.00;99167.41;4952778;28;20043;-77
2022/10/28 01:49:41;;;;;;;1999.90;999.90;;;;;;;11.27;100.00;99168.25;4967124;28;20449;-78
2022/10/28 01:52:11;;;;;;;1999.90;999.90;;;;;;;11.29;100.00;99170.69;4971739;28;20047;-76
2022/10/28 01:54:40;;;;;;;1999.90;999.90;;;;;;;11.30;100.00;99166.88;4971684;28;20023;-76
2022/10/28 01:57:06;;;;;;;1999.90;999.90;;;;;;;11.31;100.00;99163.03;4971565;28;20839;-77
2022/10/28 01:59:33;;;;;;;1999.90;999.90;;;;;;;11.31;100.00;99168.50;4970619;28;20041;-78
2022/10/28 02:01:58;;;;;;;1999.90;999.90;;;;;;;11.34;100.00;99170.69;4972464;28;20027;-78
2022/10/28 02:04:24;;;;;;;1999.90;999.90;;;;;;;11.31;100.00;99162.22;4971861;28;20033;-77
2022/10/28 02:06:55;;;;;;;1999.90;999.90;;;;;;;11.32;100.00;99159.19;4971720;28;20089;-78
2022/10/28 02:09:27;;;;;;;1999.90;999.90;;;;;;;11.36;100.00;99163.06;4975134;28;20058;-78
2022/10/28 02:12:04;;;;;;;1999.90;999.90;;;;;;;11.40;100.00;99155.94;4975525;28;20042;-78
2022/10/28 02:14:57;;;;;;;1999.90;999.90;;;;;;;11.41;100.00;99156.75;4975483;28;20034;-77
2022/10/28 02:17:47;;;;;;;1999.90;999.90;;;;;;;11.33;100.00;99163.59;4974970;28;20082;-77
2022/10/28 02:20:39;;;;;;;1999.90;999.90;;;;;;;11.24;100.00;99155.06;4980857;28;20420;-77
2022/10/28 02:23:35;;;;;;;1999.90;999.90;;;;;;;11.21;100.00;99152.88;4975885;28;20035;-75
2022/10/28 02:26:33;;;;;;;1999.90;999.90;;;;;;;11.29;100.00;99159.75;4983248;28;20039;-76
2022/10/28 02:29:50;;;;;;;1999.90;999.90;;;;;;;11.25;100.00;99158.63;4975418;28;20054;-77
2022/10/28 02:32:20;;;;;;;1999.90;999.90;;;;;;;11.18;100.00;99158.88;4979202;28;20050;-77
2022/10/28 02:34:49;;;;;;;1999.90;999.90;;;;;;;11.13;100.00;99166.25;4975077;28;20823;-77
2022/10/28 02:37:26;;;;;;;1999.90;999.90;;;;;;;11.11;100.00;99169.28;4975147;28;20026;-75
2022/10/28 02:39:57;;;;;;;1999.90;999.90;;;;;;;11.02;100.00;99159.13;4973667;28;20026;-75
2022/10/28 02:42:45;;;;;;;1999.90;999.90;;;;;;;10.94;100.00;99154.16;4974192;28;20023;-77
2022/10/28 02:45:18;;;;;;;1999.90;999.90;;;;;;;10.94;100.00;99160.44;4976029;28;20416;-79
2022/10/28 02:47:56;;;;;;;1999.90;999.90;;;;;;;10.82;100.00;99159.03;4977776;28;20050;-79
2022/10/28 02:50:31;;;;;;;1999.90;999.90;;;;;;;10.87;100.00;99157.13;4978047;28;20031;-80
2022/10/28 02:52:59;;;;;;;1999.90;999.90;;;;;;;10.86;100.00;99160.16;4978366;28;20053;-78
2022/10/28 02:55:31;;;;;;;1999.90;999.90;;;;;;;10.82;100.00;99161.75;4977281;28;20027;-80
2022/10/28 02:57:57;;;;;;;1999.90;999.90;;;;;;;10.81;100.00;99158.19;4978212;28;20047;-78
2022/10/28 03:00:23;;;;;;;1999.90;999.90;;;;;;;10.84;100.00;99148.66;4977731;28;20084;-79
2022/10/28 03:02:49;;;;;;;1999.90;999.90;;;;;;;10.80;100.00;99158.47;4976553;28;20416;-78
2022/10/28 03:05:15;;;;;;;1999.90;999.90;;;;;;;10.79;100.00;99154.91;4977345;28;20033;-78
2022/10/28 03:07:40;;;;;;;1999.90;999.90;;;;;;;10.73;100.00;99162.28;4976127;28;20035;-80
2022/10/28 03:10:06;;;;;;;1999.90;999.90;;;;;;;10.77;100.00;99164.50;4978856;28;20125;-78
2022/10/28 03:12:32;;;;;;;1999.90;999.90;;;;;;;10.73;100.00;99162.28;4961139;28;20118;-80
2022/10/28 03:14:57;;;;;;;1999.90;999.90;;;;;;;10.67;100.00;99157.06;4977646;28;20023;-79
2022/10/28 03:17:22;;;;;;;1999.90;999.90;;;;;;;10.70;100.00;99157.34;4973167;28;20023;-79
2022/10/28 03:19:48;;;;;;;1999.90;999.90;;;;;;;10.71;100.00;99163.66;4959221;28;20119;-80
2022/10/28 03:22:13;;;;;;;1999.90;999.90;;;;;;;10.69;100.00;99160.34;4960353;29;20031;-80
2022/10/28 03:24:38;;;;;;;1999.90;999.90;;;;;;;10.66;100.00;99161.69;4960259;29;20027;-79
2022/10/28 03:27:04;;;;;;;1999.90;999.90;;;;;;;10.72;100.00;99163.38;4959945;29;20124;-77
2022/10/28 03:29:29;;;;;;;1999.90;999.90;;;;;;;10.66;100.00;99167.16;4964327;28;20034;-79
2022/10/28 03:31:54;;;;;;;1999.90;999.90;;;;;;;10.55;100.00;99159.19;4975376;28;20042;-78
2022/10/28 03:34:20;;;;;;;1999.90;999.90;;;;;;;10.53;100.00;99161.34;4976290;28;20027;-78
2022/10/28 03:36:45;;;;;;;1999.90;999.90;;;;;;;10.51;100.00;99164.34;4979735;28;20035;-80
2022/10/28 03:39:10;;;;;;;1999.90;999.90;;;;;;;10.57;100.00;99157.81;4984937;28;20023;-78
2022/10/28 03:41:36;;;;;;;1999.90;999.90;;;;;;;10.61;100.00;99163.59;4983339;28;20186;-79
2022/10/28 03:44:01;;;;;;;1999.90;999.90;;;;;;;10.56;100.00;99158.06;4982370;28;20026;-79
2022/10/28 03:46:26;;;;;;;1999.90;999.90;;;;;;;10.63;100.00;99159.50;4979976;28;20051;-78
2022/10/28 03:48:52;;;;;;;1999.90;999.90;;;;;;;10.62;100.00;99166.03;4974442;28;20392;-77
2022/10/28 03:51:17;;;;;;;1999.90;999.90;;;;;;;10.64;100.00;99154.84;4975423;28;20455;-79
2022/10/28 03:53:42;;;;;;;1999.90;999.90;;;;;;;10.49;100.00;99150.13;4975717;28;20038;-79
2022/10/28 03:56:08;;;;;;;1999.90;999.90;;;;;;;10.54;100.00;99161.09;4976324;28;20511;-79
2022/10/28 03:58:33;;;;;;;1999.90;999.90;;;;;;;10.61;100.00;99158.94;4976683;28;20030;-80
2022/10/28 04:00:59;;;;;;;1999.90;999.90;;;;;;;10.67;100.00;99165.25;4975544;28;20027;-78
2022/10/28 04:03:24;;;;;;;1999.90;999.90;;;;;;;10.70;100.00;99156.53;4976296;28;20065;-77
2022/10/28 04:05:50;;;;;;;1999.90;999.90;;;;;;;10.74;100.00;99155.69;4977682;28;20026;-79
2022/10/28 04:08:17;;;;;;;1999.90;999.90;;;;;;;10.64;100.00;99147.47;4995333;28;20030;-79
2022/10/28 04:10:43;;;;;;;1999.90;999.90;;;;;;;10.59;100.00;99141.94;4994368;28;20030;-78
2022/10/28 04:13:09;;;;;;;1999.90;999.90;;;;;;;10.62;100.00;99149.63;4994511;28;20031;-79
2022/10/28 04:15:34;;;;;;;1999.90;999.90;;;;;;;10.62;100.00;99141.41;4994070;28;20034;-79
2022/10/28 04:18:00;;;;;;;1999.90;999.90;;;;;;;10.59;100.00;99150.16;4994361;28;20092;-78
2022/10/28 04:20:26;;;;;;;1999.90;999.90;;;;;;;10.58;100.00;99142.22;4994050;28;20045;-77
2022/10/28 04:22:53;;;;;;;1999.90;999.90;;;;;;;10.72;100.00;99146.94;4994037;28;20033;-77
2022/10/28 04:25:19;;;;;;;1999.90;999.90;;;;;;;10.84;100.00;99152.19;4994163;28;20030;-79
2022/10/28 04:27:44;;;;;;;1999.90;999.90;;;;;;;10.85;100.00;99150.28;4993563;28;20451;-79
2022/10/28 04:30:11;;;;;;;1999.90;999.90;;;;;;;10.80;100.00;99145.63;4999323;28;20031;-79
2022/10/28 04:32:37;;;;;;;1999.90;999.90;;;;;;;10.85;100.00;99153.84;4993109;28;20042;-78
2022/10/28 04:35:03;;;;;;;1999.90;999.90;;;;;;;10.77;100.00;99146.16;4973478;28;20029;-78
2022/10/28 04:37:29;;;;;;;1999.90;999.90;;;;;;;10.67;100.00;99146.94;4973057;28;20034;-78
2022/10/28 04:39:54;;;;;;;1999.90;999.90;;;;;;;10.69;100.00;99149.38;4972583;28;20563;-79
2022/10/28 04:42:19;;;;;;;1999.90;999.90;;;;;;;10.82;100.00;99140.69;4974267;28;20065;-78
2022/10/28 04:44:45;;;;;;;1999.90;999.90;;;;;;;11.02;100.00;99148.16;4972645;28;20074;-78
2022/10/28 04:47:10;;;;;;;1999.90;999.90;;;;;;;11.01;100.00;99144.59;4972722;28;20035;-78
2022/10/28 04:49:35;;;;;;;1999.90;999.90;;;;;;;10.99;100.00;99141.31;4972903;28;20027;-78
2022/10/28 04:52:00;;;;;;;1999.90;999.90;;;;;;;10.97;100.00;99151.69;4971886;28;20058;-78
2022/10/28 04:54:26;;;;;;;1999.90;999.90;;;;;;;11.00;100.00;99136.66;4977374;28;20029;-77
2022/10/28 04:56:53;;;;;;;1999.90;999.90;;;;;;;10.97;100.00;99134.44;4981953;28;20038;-78
2022/10/28 04:59:19;;;;;;;1999.90;999.90;;;;;;;10.98;100.00;99136.09;4984312;28;20515;-78
2022/10/28 05:01:47;;;;;;;1999.90;999.90;;;;;;;10.90;100.00;99134.69;4980238;28;20030;-79
2022/10/28 05:04:20;;;;;;;1999.90;999.90;;;;;;;10.90;100.00;99133.91;5064160;27;2131227;-75
2022/10/28 05:06:45;;;;;;;1999.90;999.90;;;;;;;10.86;100.00;99132.78;5120134;28;20395;-76
2022/10/28 05:09:11;;;;;;;1999.90;999.90;;;;;;;10.77;100.00;99132.47;5119038;28;20027;-79
2022/10/28 05:11:36;;;;;;;1999.90;999.90;;;;;;;10.84;100.00;99132.22;5117029;28;20098;-74
2022/10/28 05:14:01;;;;;;;1999.90;999.90;;;;;;;10.84;100.00;99134.97;5118663;28;20024;-75
2022/10/28 05:16:27;;;;;;;1999.90;999.90;;;;;;;10.89;100.00;99133.06;5124713;28;20020;-84
2022/10/28 05:18:52;;;;;;;1999.90;999.90;;;;;;;10.92;100.00;99137.19;5128800;28;20035;-81
2022/10/28 05:21:18;;;;;;;1999.90;999.90;;;;;;;10.85;100.00;99129.22;5127058;28;20023;-81
2022/10/28 05:23:43;;;;;;;1999.90;999.90;;;;;;;10.73;100.00;99134.09;5105963;28;20027;-84
2022/10/28 05:26:08;;;;;;;1999.90;999.90;;;;;;;10.61;100.00;99128.03;5124516;28;20476;-83
2022/10/28 05:28:34;;;;;;;1999.90;999.90;;;;;;;10.56;100.00;99133.44;5139102;28;20066;-85
2022/10/28 05:30:59;;;;;;;1999.90;999.90;;;;;;;10.61;100.00;99125.28;5126760;28;20031;-88
2022/10/28 05:33:25;;;;;;;1999.90;999.90;;;;;;;10.62;100.00;99127.75;5135070;28;20688;-88
2022/10/28 05:35:50;;;;;;;1999.90;999.90;;;;;;;10.60;100.00;99123.63;5120529;28;20020;-82
2022/10/28 05:38:15;;;;;;;1999.90;999.90;;;;;;;10.73;100.00;99129.44;5145992;28;20022;-85
2022/10/28 05:40:40;;;;;;;1999.90;999.90;;;;;;;10.75;100.00;99132.72;5146007;28;20007;-85
2022/10/28 05:43:08;;;;;;;1999.90;999.90;;;;;;;10.79;100.00;99132.19;5148702;28;20063;-86
2022/10/28 05:45:33;;;;;;;1999.90;999.90;;;;;;;10.74;100.00;99131.06;5149744;28;20035;-86
2022/10/28 05:47:59;;;;;;;1999.90;999.90;;;;;;;10.65;100.00;99132.69;5149273;28;20702;-83
2022/10/28 05:50:24;;;;;;;1999.90;999.90;;;;;;;10.75;100.00;99126.44;5136472;28;20019;-82
2022/10/28 05:52:54;;;;;;;1999.90;999.90;;;;;;;10.74;100.00;99135.75;5143368;28;20090;-84
2022/10/28 05:55:22;;;;;;;1999.90;999.90;;;;;;;10.79;100.00;99140.41;5136790;28;20076;-80
2022/10/28 05:57:49;;;;;;;1999.90;999.90;;;;;;;10.76;100.00;99141.75;5135449;28;20031;-83
2022/10/28 06:00:17;;;;;;;1999.90;999.90;;;;;;;10.85;100.00;99144.81;5111782;28;20027;-77
2022/10/28 06:02:42;;;;;;;1999.90;999.90;;;;;;;10.80;100.00;99142.06;5109917;28;20146;-76
2022/10/28 06:05:09;;;;;;;1999.90;999.90;;;;;;;10.84;100.00;99143.97;5127942;28;20519;-75
2022/10/28 06:07:35;;;;;;;1999.90;999.90;;;;;;;10.94;100.00;99145.94;5121589;28;21452;-75
2022/10/28 06:10:02;;;;;;;1999.90;999.90;;;;;;;10.92;100.00;99148.94;5115162;28;20012;-77
2022/10/28 06:12:30;;;;;;;1999.90;999.90;;;;;;;10.99;100.00;99154.19;5117893;28;20033;-77
2022/10/28 06:14:56;;;;;;;1999.90;999.90;;;;;;;11.05;100.00;99158.59;5108379;28;20532;-75
2022/10/28 06:17:21;;;;;;;1999.90;999.90;;;;;;;11.08;100.00;99153.41;5100675;28;20016;-75
2022/10/28 06:19:46;;;;;;;1999.90;999.90;;;;;;;11.06;100.00;99158.28;5081329;28;20399;-75
2022/10/28 06:22:12;;;;;;;1999.90;999.90;;;;;;;11.00;100.00;99164.03;5113348;28;20065;-73
2022/10/28 06:24:37;;;;;;;1999.90;999.90;;;;;;;10.98;100.00;99164.31;5113567;28;20019;-74
2022/10/28 06:27:03;;;;;;;1999.90;999.90;;;;;;;10.97;100.00;99164.56;5114429;28;20038;-75
2022/10/28 06:29:28;;;;;;;1999.90;999.90;;;;;;;11.02;100.00;99164.59;5110487;28;20020;-75
2022/10/28 06:31:54;;;;;;;1999.90;999.90;;;;;;;11.03;100.00;99166.22;5093571;28;20051;-76
2022/10/28 06:34:19;;;;;;;1999.90;999.90;;;;;;;11.07;100.00;99157.22;5111147;28;20104;-76
2022/10/28 06:36:44;;;;;;;1999.90;999.90;;;;;;;11.15;100.00;99169.56;5095579;28;20043;-76
2022/10/28 06:39:10;;;;;;;1999.90;999.90;;;;;;;11.18;100.00;99169.03;5117736;28;20032;-76
2022/10/28 06:41:35;;;;;;;1999.90;999.90;;;;;;;11.14;100.00;99173.41;5119484;28;20024;-75
2022/10/28 06:44:01;;;;;;;1999.90;999.90;;;;;;;11.09;100.00;99167.88;5095871;28;20488;-74
2022/10/28 06:46:26;;;;;;;1999.90;999.90;;;;;;;11.05;100.00;99170.38;5095043;28;20030;-74
2022/10/28 06:48:55;;;;;;;1999.90;999.90;;;;;;;11.07;100.00;99170.06;5113436;28;20028;-75
2022/10/28 06:51:21;;;;;;;1999.90;999.90;;;;;;;11.17;100.00;99178.34;5112881;28;20024;-75
2022/10/28 06:53:51;;;;;;;1999.90;999.90;;;;;;;11.23;100.00;99175.34;5113627;28;20023;-77
2022/10/28 06:56:17;;;;;;;1999.90;999.90;;;;;;;11.33;100.00;99188.25;5113015;28;20036;-74
2022/10/28 06:58:42;;;;;;;1999.90;999.90;;;;;;;11.40;100.00;99188.81;5113146;28;20024;-74
2022/10/28 07:01:08;;;;;;;1999.90;999.90;;;;;;;11.50;100.00;99196.22;5113071;28;20115;-76
2022/10/28 07:03:33;;;;;;;1999.90;999.90;;;;;;;11.50;100.00;99194.31;5112781;28;20446;-75
2022/10/28 07:05:59;;;;;;;1999.90;999.90;;;;;;;11.58;100.00;99199.28;5107896;28;20022;-75
2022/10/28 07:08:26;;;;;;;1999.90;999.90;;;;;;;11.58;100.00;99196.53;5092625;28;20020;-76
2022/10/28 07:10:55;;;;;;;1999.90;999.90;;;;;;;11.50;100.00;99208.00;5091074;28;20024;-74
2022/10/28 07:13:22;;;;;;;1999.90;999.90;;;;;;;11.49;100.00;99192.69;5071819;28;20054;-77
2022/10/28 07:15:55;;;;;;;1999.90;999.90;;;;;;;11.48;100.00;99190.19;5090155;28;20024;-76
2022/10/28 07:18:22;;;;;;;1999.90;999.90;;;;;;;11.54;100.00;99206.38;5090946;28;20028;-76
2022/10/28 07:20:47;;;;;;;1999.90;999.90;;;;;;;11.53;100.00;99204.72;5091742;28;20047;-74
2022/10/28 07:23:13;;;;;;;1999.90;999.90;;;;;;;11.55;100.00;99201.72;5091488;28;20448;-76
2022/10/28 07:25:38;;;;;;;1999.90;999.90;;;;;;;11.57;100.00;99194.03;5089925;28;20032;-75
2022/10/28 07:28:04;;;;;;;1999.90;999.90;;;;;;;11.60;100.00;99191.59;5091637;28;20032;-73
2022/10/28 07:30:30;;;;;;;1999.90;999.90;;;;;;;11.64;100.00;99211.88;5091284;28;20077;-75
2022/10/28 07:32:59;;;;;;;1999.90;999.90;;;;;;;11.78;100.00;99206.72;5092051;28;20111;-75
2022/10/28 07:35:25;;;;;;;1999.90;999.90;;;;;;;11.85;100.00;99209.19;5071433;28;20028;-74
2022/10/28 07:37:50;;;;;;;1999.90;999.90;;;;;;;11.81;100.00;99206.16;5073306;28;20036;-75
2022/10/28 07:40:16;;;;;;;1999.90;999.90;;;;;;;11.88;100.00;99205.91;5091702;28;20032;-75
2022/10/28 07:42:42;;;;;;;1999.90;999.90;;;;;;;11.91;100.00;99199.88;5088307;28;20043;-75
2022/10/28 07:45:07;;;;;;;1999.90;999.90;;;;;;;11.85;100.00;99198.22;5093484;28;20030;-73
2022/10/28 07:47:33;;;;;;;1999.90;999.90;;;;;;;11.86;100.00;99205.38;5112046;28;20507;-74
2022/10/28 07:49:58;;;;;;;1999.90;999.90;;;;;;;11.75;100.00;99202.59;5111851;28;20035;-75
2022/10/28 07:52:24;;;;;;;1999.90;999.90;;;;;;;11.69;100.00;99203.66;5111668;28;20027;-75
2022/10/28 07:54:49;;;;;;;1999.90;999.90;;;;;;;11.71;100.00;99201.53;5111803;28;20015;-75
2022/10/28 07:57:15;;;;;;;1999.90;999.90;;;;;;;11.86;100.00;99208.94;5112313;28;20028;-75
2022/10/28 07:59:40;;;;;;;1999.90;999.90;;;;;;;12.01;100.00;99210.84;5111812;28;20020;-74
2022/10/28 08:02:05;;;;;;;1999.90;999.90;;;;;;;11.93;100.00;99209.50;5112559;28;20022;-74
2022/10/28 08:04:31;;;;;;;1999.90;999.90;;;;;;;11.95;100.00;99209.22;5094567;28;20376;-75
2022/10/28 08:06:57;;;;;;;1999.90;999.90;;;;;;;11.95;100.00;99206.47;5098378;28;20115;-75
2022/10/28 08:09:23;;;;;;;1999.90;999.90;;;;;;;11.97;100.00;99204.25;5116179;28;20047;-75
2022/10/28 08:11:48;;;;;;;1999.90;999.90;;;;;;;11.90;100.00;99199.06;5115412;28;20031;-77
2022/10/28 08:14:14;;;;;;;1999.90;999.90;;;;;;;11.76;100.00;99209.75;5101470;28;20100;-75
2022/10/28 08:16:39;;;;;;;1999.90;999.90;;;;;;;11.77;100.00;99203.16;5108780;28;20024;-75
2022/10/28 08:19:04;;;;;;;1999.90;999.90;;;;;;;11.90;100.00;99206.47;5097115;28;20028;-76
2022/10/28 08:21:30;;;;;;;1999.90;999.90;;;;;;;11.93;100.00;99203.19;5093037;28;20081;-77
2022/10/28 08:23:55;;;;;;;1999.90;999.90;;;;;;;11.81;100.00;99207.00;5094415;28;20070;-74
2022/10/28 08:26:20;;;;;;;1999.90;999.90;;;;;;;11.79;100.00;99206.44;5096448;28;20115;-75
2022/10/28 08:28:46;;;;;;;1999.90;999.90;;;;;;;11.83;100.00;99201.25;5098470;28;20028;-77
2022/10/28 08:31:12;;;;;;;1999.90;999.90;;;;;;;11.85;100.00;99203.72;5099041;28;20032;-77
2022/10/28 08:33:41;;;;;;;1999.90;999.90;;;;;;;11.78;100.00;99196.56;5080795;28;20027;-75
2022/10/28 08:36:08;;;;;;;1999.90;999.90;;;;;;;12.01;100.00;99199.88;5080405;28;20405;-75
2022/10/28 08:38:33;;;;;;;1999.90;999.90;;;;;;;12.04;100.00;99200.16;5073606;28;20024;-75
2022/10/28 08:41:23;;;;;;;1999.90;999.90;;;;;;;12.05;100.00;99199.06;5091175;28;20031;-75
2022/10/28 08:44:03;;;;;;;1999.90;999.90;;;;;;;12.14;100.00;99196.59;5098391;28;20040;-74
2022/10/28 08:46:31;;;;;;;1999.90;999.90;;;;;;;12.26;100.00;99192.47;5098572;28;20048;-78
2022/10/28 08:48:59;;;;;;;1999.90;999.90;;;;;;;12.35;100.00;99195.47;5096604;28;20022;-76
2022/10/28 08:52:17;;;;;;;1999.90;999.90;;;;;;;12.30;100.00;99195.50;5094775;28;20081;-76
2022/10/28 08:54:49;;;;;;;1999.90;999.90;;;;;;;12.11;100.00;99205.38;5050585;28;20058;-76
2022/10/28 08:57:19;;;;;;;1999.90;999.90;;;;;;;12.20;100.00;99203.72;5110329;28;20043;-75
2022/10/28 08:59:47;;;;;;;1999.90;999.90;;;;;;;12.32;100.00;99194.13;5110500;28;20027;-76
2022/10/28 09:02:22;;;;;;;1999.90;999.90;;;;;;;12.38;100.00;99188.59;5091693;28;20053;-75
2022/10/28 09:05:12;;;;;;;1999.90;999.90;;;;;;;12.40;100.00;99186.44;5093104;28;20506;-75
2022/10/28 09:07:37;;;;;;;1999.90;999.90;;;;;;;12.30;100.00;99192.75;5096283;28;20061;-74
2022/10/28 09:10:04;;;;;;;1999.90;999.90;;;;;;;12.20;100.00;99185.34;5092439;28;20112;-76
2022/10/28 09:13:05;;;;;;;1999.90;999.90;;;;;;;12.34;100.00;99189.16;5110685;28;20107;-74
2022/10/28 09:16:02;;;;;;;1999.90;999.90;;;;;;;12.23;100.00;99195.78;5096976;28;20515;-75
2022/10/28 09:18:47;;;;;;;1999.90;999.90;;;;;;;12.41;100.00;99188.88;5076154;28;20070;-75
2022/10/28 09:21:31;;;;;;;1999.90;999.90;;;;;;;12.46;100.00;99180.66;5112358;28;20031;-76
2022/10/28 09:24:06;;;;;;;1999.90;999.90;;;;;;;12.67;100.00;99187.75;5111680;28;20039;-75
2022/10/28 09:26:46;;;;;;;;;;;;;;;12.76;100.00;99188.81;5111513;28;20028;-74
2022/10/28 09:29:52;;;;;;;1999.90;999.90;;;;;;;12.74;100.00;99190.19;5111029;28;19922;-76
2022/10/28 09:32:30;;;;;;;1999.90;999.90;;;;;;;12.80;100.00;99197.31;5103388;28;20508;-77
2022/10/28 09:35:05;;;;;;;1999.90;999.90;;;;;;;12.71;100.00;99199.00;5107702;28;20391;-74
2022/10/28 09:37:37;;;;;;;1999.90;999.90;;;;;;;12.94;100.00;99192.06;5098506;28;20500;-74
2022/10/28 09:40:22;;;;;;;1999.90;999.90;;;;;;;13.00;100.00;99193.69;5098792;28;20073;-75
2022/10/28 09:42:51;;;;;;;1999.90;999.90;;;;;;;12.81;100.00;99188.78;5080884;28;20020;-75
2022/10/28 09:45:20;;;;;;;1999.90;999.90;;;;;;;12.89;100.00;99188.22;5097927;28;20024;-74
2022/10/28 09:47:55;;;;;;;1999.90;999.90;;;;;;;13.02;100.00;99188.72;5099067;28;20038;-74
2022/10/28 09:50:26;;;;;;;1999.90;999.90;;;;;;;12.90;100.00;99189.06;5100696;28;20035;-75
2022/10/28 09:53:08;;;;;;;1999.90;999.90;;;;;;;13.03;100.00;99185.69;5102044;28;20030;-75
2022/10/28 09:55:34;;;;;;;1999.90;999.90;;;;;;;13.28;100.00;99187.56;5105969;28;20063;-74
2022/10/28 09:58:01;;;;;;;1999.90;999.90;;;;;;;13.30;100.00;99185.34;5088107;28;20024;-74
2022/10/28 10:00:26;;;;;;;1999.90;999.90;;;;;;;13.28;100.00;99188.34;5110871;28;20118;-76
2022/10/28 10:02:58;;;;;;;1999.90;999.90;;;;;;;13.28;100.00;99184.81;5111105;28;20040;-76
2022/10/28 10:05:25;;;;;;;1999.90;999.90;;;;;;;13.30;100.00;99179.84;5113622;28;20530;-75
2022/10/28 10:07:55;;;;;;;1999.90;999.90;;;;;;;13.40;100.00;99179.78;5104177;28;20487;-75
2022/10/28 10:10:25;;;;;;;1999.90;999.90;;;;;;;13.26;100.00;99185.06;5110182;28;20027;-74
2022/10/28 10:12:54;;;;;;;1999.90;999.90;;;;;;;13.35;100.00;99179.81;5112832;28;20015;-75
2022/10/28 10:15:28;;;;;;;1999.90;999.90;;;;;;;13.40;100.00;99177.88;5112764;28;20783;-74
2022/10/28 10:18:00;;;;;;;1999.90;999.90;;;;;;;13.62;100.00;99171.97;5112759;28;20022;-74
2022/10/28 10:20:27;;;;;;;1999.90;999.90;;;;;;;13.58;100.00;99168.13;5092066;28;20092;-75
2022/10/28 10:22:52;;;;;;;1999.90;999.90;;;;;;;13.58;100.00;99170.88;5100567;28;20075;-76
2022/10/28 10:25:17;;;;;;;1999.90;999.90;;;;;;;13.58;100.00;99170.88;5095553;28;20519;-75
2022/10/28 10:27:54;;;;;;;1999.90;999.90;;;;;;;13.69;100.00;99169.69;5080666;28;20038;-75
2022/10/28 10:30:45;;;;;;;1999.90;999.90;;;;;;;13.56;100.00;99159.34;5080469;28;20024;-78
2022/10/28 10:33:35;;;;;;;1999.90;999.90;;;;;;;13.68;100.00;99168.06;5105848;28;20074;-75
2022/10/28 10:36:11;;;;;;;1999.90;999.90;;;;;;;13.82;100.00;99169.06;5090932;28;20047;-75
2022/10/28 10:38:37;;;;;;;;;;;;;;;14.05;100.00;99163.94;5105869;28;20531;-74
2022/10/28 10:41:03;;;;;;;1999.90;999.90;;;;;;;14.01;100.00;99168.34;5103790;28;20372;-78
2022/10/28 10:43:30;;;;;;;1999.90;999.90;;;;;;;14.14;100.00;99163.03;5101027;28;20041;-74
2022/10/28 10:46:00;;;;;;;1999.90;999.90;;;;;;;14.42;100.00;99153.16;5108353;28;20027;-74
2022/10/28 10:48:26;;;;;;;1999.90;999.90;;;;;;;14.46;100.00;99145.97;5106260;28;20427;-74
2022/10/28 10:50:55;;;;;;;1999.90;999.90;;;;;;;14.60;100.00;99157.13;5082348;28;20046;-76
2022/10/28 10:53:30;;;;;;;1999.90;999.90;;;;;;;14.72;100.00;99152.81;5104111;28;20082;-76
2022/10/28 10:56:09;;;;;;;1999.90;999.90;;;;;;;14.87;100.00;99152.66;5089257;28;20012;-76
2022/10/28 10:58:39;;;;;;;1999.90;999.90;;;;;;;14.95;100.00;99152.00;5090186;28;20053;-77
2022/10/28 11:01:06;;;;;;;1999.90;999.90;;;;;;;14.92;100.00;99151.75;5106211;28;20107;-73